EDT,Max TemperatureF,Mean TemperatureF,Min TemperatureF,Max Dew PointF,MeanDew PointF,Min DewpointF,Max Humidity, Mean Humidity, Min Humidity, Max Sea Level PressureIn, Mean Sea Level PressureIn, Min Sea Level PressureIn, Max VisibilityMiles, Mean VisibilityMiles, Min VisibilityMiles, Max Wind SpeedMPH, Mean Wind SpeedMPH, Max Gust SpeedMPH,PrecipitationIn, CloudCover, Events, WindDirDegrees
2013-6-1,88,76,63,72,66,61,93,72,50,29.92,29.82,29.75,10,7,1,21,7,28,0.06,5,Rain-Thunderstorm,218
2013-6-2,77,67,57,68,64,56,93,77,61,29.80,29.71,29.67,10,8,2,23,9,31,0.03,6,Rain-Thunderstorm,227
2013-6-3,60,56,51,52,46,42,83,70,57,29.96,29.91,29.83,10,10,10,22,13,29,0.00,4,,242
2013-6-4,64,55,46,45,43,41,80,62,43,30.14,30.06,29.97,10,10,10,21,9,25,0.00,0,,243
2013-6-5,69,54,39,46,42,38,100,68,35,30.22,30.17,30.12,10,10,10,12,5,15,0.00,1,,33
2013-6-6,60,57,53,57,51,43,93,80,66,30.12,30.03,29.92,10,7,3,15,6,17,0.52,8,Rain,59
2013-6-7,66,61,56,61,57,54,100,89,78,29.90,29.84,29.80,10,7,2,12,3,13,0.20,8,Rain,73
2013-6-8,62,59,56,57,56,54,93,86,78,30.05,29.91,29.78,10,9,2,13,6,16,T,8,,284
2013-6-9,72,62,52,58,54,50,96,79,61,30.17,30.13,30.05,10,10,6,13,6,17,0.00,2,,232
2013-6-10,76,65,53,63,58,51,93,72,50,30.15,29.96,29.76,10,8,2,13,6,23,0.50,5,Rain,88
2013-6-11,66,62,58,64,59,55,93,89,84,29.77,29.66,29.59,10,6,0,16,6,22,0.94,8,Fog-Rain,296
2013-6-12,72,62,51,57,54,51,93,73,53,29.90,29.84,29.78,10,10,9,15,6,18,T,4,,322
2013-6-13,65,58,50,59,55,48,100,87,73,29.78,29.70,29.63,10,9,2,14,5,18,0.09,5,Rain,64
2013-6-14,77,61,45,60,52,45,100,75,49,29.93,29.81,29.75,10,5,0,16,5,22,0.00,4,Fog,358
2013-6-15,71,57,42,54,47,41,100,72,44,30.01,29.97,29.92,10,10,10,16,5,21,0.00,0,,238
2013-6-16,70,64,58,63,58,44,100,78,55,29.91,29.76,29.68,10,7,2,15,6,21,0.32,5,Rain,211
2013-6-17,73,64,54,63,59,52,97,81,64,29.94,29.85,29.78,10,8,1,14,6,17,0.34,5,Rain,249
2013-6-18,72,60,48,54,49,44,93,66,38,30.03,29.97,29.91,10,10,5,15,6,21,0.09,4,Rain,40
2013-6-19,70,56,41,48,43,40,96,65,33,30.19,30.12,30.03,10,10,10,14,5,18,0.00,0,,14
2013-6-20,73,57,41,51,43,29,100,60,20,30.26,30.23,30.19,10,10,10,12,3,16,0.00,0,,245
2013-6-21,79,62,45,56,47,41,93,62,31,30.27,30.23,30.17,10,10,10,10,4,16,0.00,0,,267
2013-6-22,84,69,54,70,64,52,97,72,47,30.17,30.07,30.02,10,6,1,14,4,29,0.11,5,Rain,208
2013-6-23,84,75,66,71,68,64,100,81,61,30.05,30.02,29.95,10,5,0,18,8,25,0.01,3,Fog-Rain,209
2013-6-24,83,77,71,69,67,64,84,73,62,29.99,29.95,29.88,10,10,8,16,8,23,0.00,1,,224
2013-6-25,81,75,68,70,67,64,90,79,67,29.89,29.83,29.75,10,8,2,20,8,26,0.49,4,Rain,222
2013-6-26,79,74,68,68,66,63,93,80,67,29.79,29.77,29.75,10,9,5,21,8,26,T,4,Rain,223
2013-6-27,81,74,66,70,66,64,93,78,62,29.79,29.72,29.61,10,10,8,10,4,13,0.00,1,,160
2013-6-28,71,66,60,66,60,57,97,88,78,29.59,29.53,29.50,10,9,5,16,7,22,0.29,8,Rain,22
2013-6-29,75,68,60,63,61,59,100,82,64,29.68,29.55,29.49,10,10,6,14,3,15,0.03,6,Rain,248
2013-6-30,80,68,56,64,60,55,93,73,52,29.92,29.80,29.68,10,10,10,10,5,13,T,4,,3